sensor_id;sensor_type;location;lat;lon;timestamp;temperature;humidity
10133;DHT22;5106;50.926;7.080;2022-11-15T00:00:26;9.90;86.60
10133;DHT22;5106;50.926;7.080;2022-11-15T00:02:54;9.90;86.60
10133;DHT22;5106;50.926;7.080;2022-11-15T00:05:20;9.90;86.60
10133;DHT22;5106;50.926;7.080;2022-11-15T00:07:45;9.90;86.50
10133;DHT22;5106;50.926;7.080;2022-11-15T00:10:11;9.90;86.60
10133;DHT22;5106;50.926;7.080;2022-11-15T00:12:37;9.90;86.60
10133;DHT22;5106;50.926;7.080;2022-11-15T00:15:03;9.90;86.60
10133;DHT22;5106;50.926;7.080;2022-11-15T00:17:29;10.00;86.70
10133;DHT22;5106;50.926;7.080;2022-11-15T00:19:55;10.00;86.70
10133;DHT22;5106;50.926;7.080;2022-11-15T00:22:20;10.00;86.70
10133;DHT22;5106;50.926;7.080;2022-11-15T00:24:46;10.10;86.80
10133;DHT22;5106;50.926;7.080;2022-11-15T00:27:12;10.10;86.80
10133;DHT22;5106;50.926;7.080;2022-11-15T00:29:37;10.10;86.80
10133;DHT22;5106;50.926;7.080;2022-11-15T00:32:04;10.20;86.90
10133;DHT22;5106;50.926;7.080;2022-11-15T00:34:30;10.20;86.80
10133;DHT22;5106;50.926;7.080;2022-11-15T00:36:56;10.20;86.80
10133;DHT22;5106;50.926;7.080;2022-11-15T00:39:21;10.30;86.70
10133;DHT22;5106;50.926;7.080;2022-11-15T00:41:47;10.30;86.70
10133;DHT22;5106;50.926;7.080;2022-11-15T00:44:12;10.30;86.70
10133;DHT22;5106;50.926;7.080;2022-11-15T00:46:38;10.30;86.70
10133;DHT22;5106;50.926;7.080;2022-11-15T00:49:03;10.30;86.60
10133;DHT22;5106;50.926;7.080;2022-11-15T00:51:29;10.30;86.60
10133;DHT22;5106;50.926;7.080;2022-11-15T00:53:55;10.40;86.60
10133;DHT22;5106;50.926;7.080;2022-11-15T00:56:20;10.40;86.60
10133;DHT22;5106;50.926;7.080;2022-11-15T00:58:46;10.40;86.60
10133;DHT22;5106;50.926;7.080;2022-11-15T01:01:13;10.50;86.70
10133;DHT22;5106;50.926;7.080;2022-11-15T01:03:40;10.50;86.60
10133;DHT22;5106;50.926;7.080;2022-11-15T01:06:07;10.50;86.70
10133;DHT22;5106;50.926;7.080;2022-11-15T01:08:33;10.60;86.70
10133;DHT22;5106;50.926;7.080;2022-11-15T01:11:04;10.60;86.60
10133;DHT22;5106;50.926;7.080;2022-11-15T01:13:35;10.70;86.60
10133;DHT22;5106;50.926;7.080;2022-11-15T01:16:15;10.70;86.60
10133;DHT22;5106;50.926;7.080;2022-11-15T01:18:43;10.70;86.60
10133;DHT22;5106;50.926;7.080;2022-11-15T01:21:14;10.80;86.60
10133;DHT22;5106;50.926;7.080;2022-11-15T01:23:40;10.80;86.60
10133;DHT22;5106;50.926;7.080;2022-11-15T01:26:09;10.80;86.60
10133;DHT22;5106;50.926;7.080;2022-11-15T01:28:37;10.90;86.50
10133;DHT22;5106;50.926;7.080;2022-11-15T01:31:06;10.90;86.40
10133;DHT22;5106;50.926;7.080;2022-11-15T01:33:34;11.00;86.40
10133;DHT22;5106;50.926;7.080;2022-11-15T01:36:04;11.00;86.40
10133;DHT22;5106;50.926;7.080;2022-11-15T01:38:30;11.00;86.30
10133;DHT22;5106;50.926;7.080;2022-11-15T01:40:56;11.00;86.30
10133;DHT22;5106;50.926;7.080;2022-11-15T01:43:26;11.00;86.20
10133;DHT22;5106;50.926;7.080;2022-11-15T01:46:19;11.00;86.20
10133;DHT22;5106;50.926;7.080;2022-11-15T01:48:48;11.00;86.30
10133;DHT22;5106;50.926;7.080;2022-11-15T01:51:16;11.00;86.30
10133;DHT22;5106;50.926;7.080;2022-11-15T01:53:46;11.00;86.20
10133;DHT22;5106;50.926;7.080;2022-11-15T01:56:20;11.10;86.30
10133;DHT22;5106;50.926;7.080;2022-11-15T01:58:49;11.00;86.30
10133;DHT22;5106;50.926;7.080;2022-11-15T02:01:15;11.10;86.30
10133;DHT22;5106;50.926;7.080;2022-11-15T02:04:03;11.10;86.30
10133;DHT22;5106;50.926;7.080;2022-11-15T02:06:29;11.10;86.30
10133;DHT22;5106;50.926;7.080;2022-11-15T02:08:56;11.10;86.30
10133;DHT22;5106;50.926;7.080;2022-11-15T02:11:22;11.10;86.40
10133;DHT22;5106;50.926;7.080;2022-11-15T02:13:48;11.20;86.30
10133;DHT22;5106;50.926;7.080;2022-11-15T02:18:55;11.20;86.30
10133;DHT22;5106;50.926;7.080;2022-11-15T02:21:36;11.20;86.20
10133;DHT22;5106;50.926;7.080;2022-11-15T02:32:45;11.20;86.20
10133;DHT22;5106;50.926;7.080;2022-11-15T02:37:56;11.20;86.30
10133;DHT22;5106;50.926;7.080;2022-11-15T02:43:33;11.20;86.40
10133;DHT22;5106;50.926;7.080;2022-11-15T02:49:11;11.20;86.40
10133;DHT22;5106;50.926;7.080;2022-11-15T02:51:37;11.20;86.40
10133;DHT22;5106;50.926;7.080;2022-11-15T02:54:03;11.30;86.40
10133;DHT22;5106;50.926;7.080;2022-11-15T02:56:28;11.30;86.30
10133;DHT22;5106;50.926;7.080;2022-11-15T03:01:58;11.40;86.30
10133;DHT22;5106;50.926;7.080;2022-11-15T03:09:34;11.40;86.20
10133;DHT22;5106;50.926;7.080;2022-11-15T03:12:13;11.40;86.20
10133;DHT22;5106;50.926;7.080;2022-11-15T03:14:56;11.50;86.30
10133;DHT22;5106;50.926;7.080;2022-11-15T03:17:30;11.50;86.20
10133;DHT22;5106;50.926;7.080;2022-11-15T03:20:00;11.50;86.20
10133;DHT22;5106;50.926;7.080;2022-11-15T03:22:28;11.50;86.20
10133;DHT22;5106;50.926;7.080;2022-11-15T03:24:58;11.50;86.20
10133;DHT22;5106;50.926;7.080;2022-11-15T03:27:31;11.60;86.20
10133;DHT22;5106;50.926;7.080;2022-11-15T03:30:02;11.60;86.10
10133;DHT22;5106;50.926;7.080;2022-11-15T03:32:30;11.60;86.10
10133;DHT22;5106;50.926;7.080;2022-11-15T03:35:01;11.60;86.10
10133;DHT22;5106;50.926;7.080;2022-11-15T03:37:37;11.60;86.00
10133;DHT22;5106;50.926;7.080;2022-11-15T03:40:05;11.70;86.10
10133;DHT22;5106;50.926;7.080;2022-11-15T03:45:29;11.70;86.00
10133;DHT22;5106;50.926;7.080;2022-11-15T03:48:10;11.70;85.90
10133;DHT22;5106;50.926;7.080;2022-11-15T03:50:38;11.70;85.90
10133;DHT22;5106;50.926;7.080;2022-11-15T03:53:04;11.70;85.90
10133;DHT22;5106;50.926;7.080;2022-11-15T03:55:32;11.70;85.90
10133;DHT22;5106;50.926;7.080;2022-11-15T03:57:59;11.70;85.90
10133;DHT22;5106;50.926;7.080;2022-11-15T04:00:25;11.70;85.80
10133;DHT22;5106;50.926;7.080;2022-11-15T04:02:51;11.70;85.90
10133;DHT22;5106;50.926;7.080;2022-11-15T04:05:16;11.70;85.80
10133;DHT22;5106;50.926;7.080;2022-11-15T04:07:42;11.80;85.80
10133;DHT22;5106;50.926;7.080;2022-11-15T04:10:09;11.80;85.70
10133;DHT22;5106;50.926;7.080;2022-11-15T04:12:40;11.80;85.70
10133;DHT22;5106;50.926;7.080;2022-11-15T04:15:10;11.80;85.70
10133;DHT22;5106;50.926;7.080;2022-11-15T04:18:02;11.80;85.70
10133;DHT22;5106;50.926;7.080;2022-11-15T04:20:30;11.80;85.70
10133;DHT22;5106;50.926;7.080;2022-11-15T04:23:17;11.90;85.70
10133;DHT22;5106;50.926;7.080;2022-11-15T04:26:07;11.80;85.60
10133;DHT22;5106;50.926;7.080;2022-11-15T04:28:35;11.80;85.60
10133;DHT22;5106;50.926;7.080;2022-11-15T04:31:21;11.90;85.60
10133;DHT22;5106;50.926;7.080;2022-11-15T04:33:46;11.90;85.60
10133;DHT22;5106;50.926;7.080;2022-11-15T04:36:12;11.90;85.50
10133;DHT22;5106;50.926;7.080;2022-11-15T04:38:56;11.90;85.50
10133;DHT22;5106;50.926;7.080;2022-11-15T04:41:21;11.90;85.50
10133;DHT22;5106;50.926;7.080;2022-11-15T04:43:47;11.90;85.50
10133;DHT22;5106;50.926;7.080;2022-11-15T04:46:13;11.90;85.50
10133;DHT22;5106;50.926;7.080;2022-11-15T04:48:38;11.90;85.50
10133;DHT22;5106;50.926;7.080;2022-11-15T04:51:04;11.90;85.50
10133;DHT22;5106;50.926;7.080;2022-11-15T04:53:29;11.90;85.50
10133;DHT22;5106;50.926;7.080;2022-11-15T04:55:55;11.90;85.50
10133;DHT22;5106;50.926;7.080;2022-11-15T04:58:20;11.90;85.50
10133;DHT22;5106;50.926;7.080;2022-11-15T05:00:46;11.90;85.60
10133;DHT22;5106;50.926;7.080;2022-11-15T05:03:12;11.90;85.50
10133;DHT22;5106;50.926;7.080;2022-11-15T05:05:58;11.90;85.50
10133;DHT22;5106;50.926;7.080;2022-11-15T05:08:24;11.90;85.50
10133;DHT22;5106;50.926;7.080;2022-11-15T05:10:50;11.90;85.50
10133;DHT22;5106;50.926;7.080;2022-11-15T05:13:15;11.90;85.60
10133;DHT22;5106;50.926;7.080;2022-11-15T05:15:41;11.90;85.60
10133;DHT22;5106;50.926;7.080;2022-11-15T05:18:06;11.80;85.60
10133;DHT22;5106;50.926;7.080;2022-11-15T05:20:32;11.80;85.70
10133;DHT22;5106;50.926;7.080;2022-11-15T05:22:58;11.80;85.70
10133;DHT22;5106;50.926;7.080;2022-11-15T05:25:23;11.80;85.70
10133;DHT22;5106;50.926;7.080;2022-11-15T05:27:49;11.80;85.70
10133;DHT22;5106;50.926;7.080;2022-11-15T05:30:15;11.80;85.70
10133;DHT22;5106;50.926;7.080;2022-11-15T05:32:42;11.70;85.90
10133;DHT22;5106;50.926;7.080;2022-11-15T05:35:39;11.70;85.90
10133;DHT22;5106;50.926;7.080;2022-11-15T05:37:57;11.70;85.90
10133;DHT22;5106;50.926;7.080;2022-11-15T05:40:23;11.70;85.80
10133;DHT22;5106;50.926;7.080;2022-11-15T05:42:49;11.60;85.90
10133;DHT22;5106;50.926;7.080;2022-11-15T05:45:15;11.60;85.90
10133;DHT22;5106;50.926;7.080;2022-11-15T05:47:41;11.60;85.90
10133;DHT22;5106;50.926;7.080;2022-11-15T05:50:07;11.60;86.00
10133;DHT22;5106;50.926;7.080;2022-11-15T05:52:35;11.50;85.90
10133;DHT22;5106;50.926;7.080;2022-11-15T05:55:02;11.50;85.90
10133;DHT22;5106;50.926;7.080;2022-11-15T05:57:28;11.50;86.00
10133;DHT22;5106;50.926;7.080;2022-11-15T05:59:54;11.50;86.10
10133;DHT22;5106;50.926;7.080;2022-11-15T06:02:20;11.40;86.00
10133;DHT22;5106;50.926;7.080;2022-11-15T06:04:46;11.40;86.10
10133;DHT22;5106;50.926;7.080;2022-11-15T06:07:11;11.40;86.10
10133;DHT22;5106;50.926;7.080;2022-11-15T06:09:37;11.40;86.00
10133;DHT22;5106;50.926;7.080;2022-11-15T06:12:03;11.40;86.10
10133;DHT22;5106;50.926;7.080;2022-11-15T06:14:28;11.40;86.10
10133;DHT22;5106;50.926;7.080;2022-11-15T06:16:55;11.30;86.10
10133;DHT22;5106;50.926;7.080;2022-11-15T06:19:20;11.30;86.00
10133;DHT22;5106;50.926;7.080;2022-11-15T06:21:46;11.30;86.10
10133;DHT22;5106;50.926;7.080;2022-11-15T06:24:11;11.20;86.20
10133;DHT22;5106;50.926;7.080;2022-11-15T06:26:37;11.20;86.20
10133;DHT22;5106;50.926;7.080;2022-11-15T06:29:04;11.20;86.20
10133;DHT22;5106;50.926;7.080;2022-11-15T06:31:30;11.10;86.30
10133;DHT22;5106;50.926;7.080;2022-11-15T06:33:55;11.10;86.20
10133;DHT22;5106;50.926;7.080;2022-11-15T06:36:21;11.00;86.20
10133;DHT22;5106;50.926;7.080;2022-11-15T06:38:46;11.00;86.10
10133;DHT22;5106;50.926;7.080;2022-11-15T06:41:13;10.90;86.10
10133;DHT22;5106;50.926;7.080;2022-11-15T06:43:39;10.90;86.20
10133;DHT22;5106;50.926;7.080;2022-11-15T06:46:05;10.80;86.20
10133;DHT22;5106;50.926;7.080;2022-11-15T06:48:32;10.80;86.40
10133;DHT22;5106;50.926;7.080;2022-11-15T06:51:00;10.80;86.40
10133;DHT22;5106;50.926;7.080;2022-11-15T06:53:27;10.70;86.40
10133;DHT22;5106;50.926;7.080;2022-11-15T06:55:53;10.70;86.40
10133;DHT22;5106;50.926;7.080;2022-11-15T06:58:20;10.60;86.40
10133;DHT22;5106;50.926;7.080;2022-11-15T07:00:46;10.60;86.50
10133;DHT22;5106;50.926;7.080;2022-11-15T07:03:12;10.60;86.60
10133;DHT22;5106;50.926;7.080;2022-11-15T07:05:37;10.50;86.60
10133;DHT22;5106;50.926;7.080;2022-11-15T07:08:03;10.40;86.60
10133;DHT22;5106;50.926;7.080;2022-11-15T07:10:29;10.40;86.60
10133;DHT22;5106;50.926;7.080;2022-11-15T07:12:55;10.40;86.60
10133;DHT22;5106;50.926;7.080;2022-11-15T07:15:23;10.40;86.60
10133;DHT22;5106;50.926;7.080;2022-11-15T07:17:49;10.40;86.60
10133;DHT22;5106;50.926;7.080;2022-11-15T07:20:15;10.30;86.60
10133;DHT22;5106;50.926;7.080;2022-11-15T07:22:42;10.40;86.80
10133;DHT22;5106;50.926;7.080;2022-11-15T07:25:08;10.30;86.80
10133;DHT22;5106;50.926;7.080;2022-11-15T07:27:34;10.30;86.80
10133;DHT22;5106;50.926;7.080;2022-11-15T07:30:00;10.30;86.80
10133;DHT22;5106;50.926;7.080;2022-11-15T07:32:25;10.30;86.80
10133;DHT22;5106;50.926;7.080;2022-11-15T07:34:51;10.30;86.80
10133;DHT22;5106;50.926;7.080;2022-11-15T07:37:17;10.30;86.80
10133;DHT22;5106;50.926;7.080;2022-11-15T07:39:43;10.30;86.90
10133;DHT22;5106;50.926;7.080;2022-11-15T07:42:09;10.30;86.80
10133;DHT22;5106;50.926;7.080;2022-11-15T07:44:53;10.30;86.70
10133;DHT22;5106;50.926;7.080;2022-11-15T07:47:18;10.30;86.70
10133;DHT22;5106;50.926;7.080;2022-11-15T07:49:44;10.40;86.60
10133;DHT22;5106;50.926;7.080;2022-11-15T07:52:12;10.30;86.50
10133;DHT22;5106;50.926;7.080;2022-11-15T07:54:37;10.40;86.60
10133;DHT22;5106;50.926;7.080;2022-11-15T07:57:03;10.40;86.50
10133;DHT22;5106;50.926;7.080;2022-11-15T07:59:29;10.40;86.60
10133;DHT22;5106;50.926;7.080;2022-11-15T08:01:55;10.40;86.50
10133;DHT22;5106;50.926;7.080;2022-11-15T08:04:20;10.40;86.50
10133;DHT22;5106;50.926;7.080;2022-11-15T08:06:46;10.50;86.50
10133;DHT22;5106;50.926;7.080;2022-11-15T08:09:11;10.50;86.40
10133;DHT22;5106;50.926;7.080;2022-11-15T08:11:37;10.60;86.40
10133;DHT22;5106;50.926;7.080;2022-11-15T08:14:03;10.60;86.30
10133;DHT22;5106;50.926;7.080;2022-11-15T08:16:28;10.60;86.40
10133;DHT22;5106;50.926;7.080;2022-11-15T08:18:54;10.70;86.20
10133;DHT22;5106;50.926;7.080;2022-11-15T08:21:20;10.70;86.10
10133;DHT22;5106;50.926;7.080;2022-11-15T08:23:46;10.70;86.10
10133;DHT22;5106;50.926;7.080;2022-11-15T08:26:12;10.70;86.10
10133;DHT22;5106;50.926;7.080;2022-11-15T08:28:38;10.70;86.00
10133;DHT22;5106;50.926;7.080;2022-11-15T08:31:04;10.80;86.00
10133;DHT22;5106;50.926;7.080;2022-11-15T08:33:31;10.80;86.00
10133;DHT22;5106;50.926;7.080;2022-11-15T08:35:58;10.80;85.90
10133;DHT22;5106;50.926;7.080;2022-11-15T08:38:24;10.90;85.90
10133;DHT22;5106;50.926;7.080;2022-11-15T08:40:52;10.90;85.80
10133;DHT22;5106;50.926;7.080;2022-11-15T08:43:19;10.90;85.80
10133;DHT22;5106;50.926;7.080;2022-11-15T08:45:44;10.90;85.90
10133;DHT22;5106;50.926;7.080;2022-11-15T08:48:10;11.00;85.70
10133;DHT22;5106;50.926;7.080;2022-11-15T08:50:36;11.00;85.80
10133;DHT22;5106;50.926;7.080;2022-11-15T08:53:06;11.00;85.70
10133;DHT22;5106;50.926;7.080;2022-11-15T08:55:32;11.10;85.70
10133;DHT22;5106;50.926;7.080;2022-11-15T08:58:02;11.10;85.60
10133;DHT22;5106;50.926;7.080;2022-11-15T09:00:27;11.20;85.40
10133;DHT22;5106;50.926;7.080;2022-11-15T09:02:53;11.30;85.30
10133;DHT22;5106;50.926;7.080;2022-11-15T09:05:19;11.30;85.30
10133;DHT22;5106;50.926;7.080;2022-11-15T09:07:45;11.40;85.10
10133;DHT22;5106;50.926;7.080;2022-11-15T09:10:10;11.40;85.10
10133;DHT22;5106;50.926;7.080;2022-11-15T09:12:36;11.50;85.00
10133;DHT22;5106;50.926;7.080;2022-11-15T09:15:02;11.50;84.90
10133;DHT22;5106;50.926;7.080;2022-11-15T09:17:28;11.70;84.60
10133;DHT22;5106;50.926;7.080;2022-11-15T09:19:53;11.70;84.40
10133;DHT22;5106;50.926;7.080;2022-11-15T09:22:19;11.80;84.10
10133;DHT22;5106;50.926;7.080;2022-11-15T09:24:44;11.90;83.60
10133;DHT22;5106;50.926;7.080;2022-11-15T09:27:10;11.90;83.30
10133;DHT22;5106;50.926;7.080;2022-11-15T09:29:36;12.00;83.00
10133;DHT22;5106;50.926;7.080;2022-11-15T09:32:01;12.00;82.90
10133;DHT22;5106;50.926;7.080;2022-11-15T09:34:27;12.10;82.50
10133;DHT22;5106;50.926;7.080;2022-11-15T09:36:53;12.20;82.10
10133;DHT22;5106;50.926;7.080;2022-11-15T09:39:18;12.30;81.80
10133;DHT22;5106;50.926;7.080;2022-11-15T09:41:51;12.30;81.70
10133;DHT22;5106;50.926;7.080;2022-11-15T09:44:34;12.40;81.30
10133;DHT22;5106;50.926;7.080;2022-11-15T09:50:01;12.50;80.70
10133;DHT22;5106;50.926;7.080;2022-11-15T09:52:34;12.60;80.70
10133;DHT22;5106;50.926;7.080;2022-11-15T09:55:00;12.60;80.40
10133;DHT22;5106;50.926;7.080;2022-11-15T10:00:31;12.70;80.30
10133;DHT22;5106;50.926;7.080;2022-11-15T10:03:13;12.80;79.80
10133;DHT22;5106;50.926;7.080;2022-11-15T10:05:50;12.80;80.20
10133;DHT22;5106;50.926;7.080;2022-11-15T10:11:26;12.90;79.30
10133;DHT22;5106;50.926;7.080;2022-11-15T10:13:56;12.90;78.80
10133;DHT22;5106;50.926;7.080;2022-11-15T10:22:03;13.10;79.10
10133;DHT22;5106;50.926;7.080;2022-11-15T10:24:42;13.20;78.40
10133;DHT22;5106;50.926;7.080;2022-11-15T10:27:14;13.20;77.30
10133;DHT22;5106;50.926;7.080;2022-11-15T10:29:49;13.30;76.20
10133;DHT22;5106;50.926;7.080;2022-11-15T10:32:19;13.40;75.50
10133;DHT22;5106;50.926;7.080;2022-11-15T10:34:48;13.40;75.40
10133;DHT22;5106;50.926;7.080;2022-11-15T10:37:14;13.40;74.20
10133;DHT22;5106;50.926;7.080;2022-11-15T10:39:40;13.50;72.90
10133;DHT22;5106;50.926;7.080;2022-11-15T10:42:35;13.50;73.10
10133;DHT22;5106;50.926;7.080;2022-11-15T10:45:00;13.60;73.40
10133;DHT22;5106;50.926;7.080;2022-11-15T10:47:31;13.60;74.00
10133;DHT22;5106;50.926;7.080;2022-11-15T10:50:27;13.70;74.20
10133;DHT22;5106;50.926;7.080;2022-11-15T10:52:53;13.70;72.10
10133;DHT22;5106;50.926;7.080;2022-11-15T10:55:25;13.70;70.50
10133;DHT22;5106;50.926;7.080;2022-11-15T10:57:54;13.80;70.90
10133;DHT22;5106;50.926;7.080;2022-11-15T11:08:31;13.90;72.30
10133;DHT22;5106;50.926;7.080;2022-11-15T11:10:58;13.90;71.80
10133;DHT22;5106;50.926;7.080;2022-11-15T11:13:28;14.00;69.90
10133;DHT22;5106;50.926;7.080;2022-11-15T11:19:13;14.00;70.40
10133;DHT22;5106;50.926;7.080;2022-11-15T11:39:24;14.00;69.50
10133;DHT22;5106;50.926;7.080;2022-11-15T11:42:07;14.10;69.10
10133;DHT22;5106;50.926;7.080;2022-11-15T11:44:58;14.10;68.80
10133;DHT22;5106;50.926;7.080;2022-11-15T11:47:47;14.10;69.20
10133;DHT22;5106;50.926;7.080;2022-11-15T11:50:22;14.10;69.10
10133;DHT22;5106;50.926;7.080;2022-11-15T11:53:11;14.10;68.80
10133;DHT22;5106;50.926;7.080;2022-11-15T11:55:45;14.20;69.80
10133;DHT22;5106;50.926;7.080;2022-11-15T12:03:52;14.30;70.00
10133;DHT22;5106;50.926;7.080;2022-11-15T12:14:03;14.40;69.10
10133;DHT22;5106;50.926;7.080;2022-11-15T12:16:31;14.40;68.80
10133;DHT22;5106;50.926;7.080;2022-11-15T12:19:03;14.40;69.60
10133;DHT22;5106;50.926;7.080;2022-11-15T12:24:09;14.40;69.90
10133;DHT22;5106;50.926;7.080;2022-11-15T12:26:41;14.40;69.60
10133;DHT22;5106;50.926;7.080;2022-11-15T12:29:17;14.40;69.40
10133;DHT22;5106;50.926;7.080;2022-11-15T12:31:48;14.40;69.60
10133;DHT22;5106;50.926;7.080;2022-11-15T12:36:51;14.50;70.20
10133;DHT22;5106;50.926;7.080;2022-11-15T12:39:17;14.50;70.00
10133;DHT22;5106;50.926;7.080;2022-11-15T12:47:03;14.50;71.20
10133;DHT22;5106;50.926;7.080;2022-11-15T12:59:55;14.50;72.60
10133;DHT22;5106;50.926;7.080;2022-11-15T13:02:40;14.50;72.30
10133;DHT22;5106;50.926;7.080;2022-11-15T13:17:44;14.40;73.00
10133;DHT22;5106;50.926;7.080;2022-11-15T13:22:52;14.40;73.30
10133;DHT22;5106;50.926;7.080;2022-11-15T13:28:18;14.40;73.30
10133;DHT22;5106;50.926;7.080;2022-11-15T13:30:51;14.40;73.50
10133;DHT22;5106;50.926;7.080;2022-11-15T13:35:49;14.30;73.60
10133;DHT22;5106;50.926;7.080;2022-11-15T13:40:50;14.30;73.80
10133;DHT22;5106;50.926;7.080;2022-11-15T13:48:33;14.30;73.90
10133;DHT22;5106;50.926;7.080;2022-11-15T13:51:03;14.30;74.00
10133;DHT22;5106;50.926;7.080;2022-11-15T13:53:32;14.30;74.00
10133;DHT22;5106;50.926;7.080;2022-11-15T13:55:58;14.30;74.10
10133;DHT22;5106;50.926;7.080;2022-11-15T13:58:24;14.20;73.50
10133;DHT22;5106;50.926;7.080;2022-11-15T14:01:01;14.20;74.00
10133;DHT22;5106;50.926;7.080;2022-11-15T14:03:31;14.20;74.10
10133;DHT22;5106;50.926;7.080;2022-11-15T14:06:09;14.20;74.30
10133;DHT22;5106;50.926;7.080;2022-11-15T14:08:58;14.20;74.30
10133;DHT22;5106;50.926;7.080;2022-11-15T14:11:24;14.20;74.10
10133;DHT22;5106;50.926;7.080;2022-11-15T14:16:35;14.20;74.30
10133;DHT22;5106;50.926;7.080;2022-11-15T14:19:02;14.20;74.60
10133;DHT22;5106;50.926;7.080;2022-11-15T14:21:28;14.20;74.60
10133;DHT22;5106;50.926;7.080;2022-11-15T14:24:14;14.10;74.70
10133;DHT22;5106;50.926;7.080;2022-11-15T14:26:40;14.10;74.90
10133;DHT22;5106;50.926;7.080;2022-11-15T14:29:28;14.10;74.90
10133;DHT22;5106;50.926;7.080;2022-11-15T14:32:13;14.10;75.20
10133;DHT22;5106;50.926;7.080;2022-11-15T14:34:39;14.10;75.40
10133;DHT22;5106;50.926;7.080;2022-11-15T14:37:05;14.00;75.20
10133;DHT22;5106;50.926;7.080;2022-11-15T14:39:30;14.00;75.30
10133;DHT22;5106;50.926;7.080;2022-11-15T14:41:59;14.00;75.50
10133;DHT22;5106;50.926;7.080;2022-11-15T14:44:24;14.00;75.60
10133;DHT22;5106;50.926;7.080;2022-11-15T14:46:50;14.00;75.50
10133;DHT22;5106;50.926;7.080;2022-11-15T14:49:15;14.00;75.40
10133;DHT22;5106;50.926;7.080;2022-11-15T14:51:41;14.00;75.40
10133;DHT22;5106;50.926;7.080;2022-11-15T14:54:10;14.00;75.40
10133;DHT22;5106;50.926;7.080;2022-11-15T14:56:35;14.00;75.50
10133;DHT22;5106;50.926;7.080;2022-11-15T14:59:01;14.00;75.50
10133;DHT22;5106;50.926;7.080;2022-11-15T15:01:27;14.00;75.50
10133;DHT22;5106;50.926;7.080;2022-11-15T15:03:53;14.00;75.70
10133;DHT22;5106;50.926;7.080;2022-11-15T15:06:22;13.90;75.70
10133;DHT22;5106;50.926;7.080;2022-11-15T15:08:48;13.90;75.70
10133;DHT22;5106;50.926;7.080;2022-11-15T15:13:44;13.80;76.10
10133;DHT22;5106;50.926;7.080;2022-11-15T15:16:09;13.80;76.00
10133;DHT22;5106;50.926;7.080;2022-11-15T15:18:35;13.80;76.00
10133;DHT22;5106;50.926;7.080;2022-11-15T15:21:01;13.70;76.10
10133;DHT22;5106;50.926;7.080;2022-11-15T15:23:32;13.70;76.20
10133;DHT22;5106;50.926;7.080;2022-11-15T15:25:59;13.70;76.40
10133;DHT22;5106;50.926;7.080;2022-11-15T15:28:25;13.70;76.70
10133;DHT22;5106;50.926;7.080;2022-11-15T15:30:50;13.60;76.70
10133;DHT22;5106;50.926;7.080;2022-11-15T15:33:17;13.60;76.70
10133;DHT22;5106;50.926;7.080;2022-11-15T15:35:43;13.60;76.70
10133;DHT22;5106;50.926;7.080;2022-11-15T15:38:11;13.60;76.80
10133;DHT22;5106;50.926;7.080;2022-11-15T15:40:37;13.60;77.10
10133;DHT22;5106;50.926;7.080;2022-11-15T15:43:03;13.60;77.00
10133;DHT22;5106;50.926;7.080;2022-11-15T15:45:29;13.50;77.10
10133;DHT22;5106;50.926;7.080;2022-11-15T15:47:55;13.50;77.30
10133;DHT22;5106;50.926;7.080;2022-11-15T15:50:22;13.50;77.50
10133;DHT22;5106;50.926;7.080;2022-11-15T15:52:49;13.50;77.80
10133;DHT22;5106;50.926;7.080;2022-11-15T15:55:15;13.40;77.80
10133;DHT22;5106;50.926;7.080;2022-11-15T15:57:41;13.40;77.80
10133;DHT22;5106;50.926;7.080;2022-11-15T16:00:07;13.40;77.80
10133;DHT22;5106;50.926;7.080;2022-11-15T16:02:33;13.40;77.80
10133;DHT22;5106;50.926;7.080;2022-11-15T16:04:58;13.40;77.80
10133;DHT22;5106;50.926;7.080;2022-11-15T16:07:24;13.40;78.00
10133;DHT22;5106;50.926;7.080;2022-11-15T16:09:50;13.40;77.90
10133;DHT22;5106;50.926;7.080;2022-11-15T16:12:33;13.40;77.80
10133;DHT22;5106;50.926;7.080;2022-11-15T16:15:00;13.40;77.80
10133;DHT22;5106;50.926;7.080;2022-11-15T16:17:32;13.40;77.90
10133;DHT22;5106;50.926;7.080;2022-11-15T16:19:59;13.40;77.90
10133;DHT22;5106;50.926;7.080;2022-11-15T16:22:25;13.50;77.70
10133;DHT22;5106;50.926;7.080;2022-11-15T16:24:50;13.40;77.90
10133;DHT22;5106;50.926;7.080;2022-11-15T16:27:19;13.40;78.00
10133;DHT22;5106;50.926;7.080;2022-11-15T16:29:45;13.40;78.10
10133;DHT22;5106;50.926;7.080;2022-11-15T16:32:11;13.40;78.10
10133;DHT22;5106;50.926;7.080;2022-11-15T16:34:37;13.40;78.10
10133;DHT22;5106;50.926;7.080;2022-11-15T16:37:03;13.40;78.10
10133;DHT22;5106;50.926;7.080;2022-11-15T16:39:30;13.50;78.00
10133;DHT22;5106;50.926;7.080;2022-11-15T16:41:57;13.50;78.10
10133;DHT22;5106;50.926;7.080;2022-11-15T16:44:22;13.50;78.00
10133;DHT22;5106;50.926;7.080;2022-11-15T16:46:49;13.50;77.70
10133;DHT22;5106;50.926;7.080;2022-11-15T16:49:17;13.50;77.80
10133;DHT22;5106;50.926;7.080;2022-11-15T16:51:47;13.50;77.50
10133;DHT22;5106;50.926;7.080;2022-11-15T16:54:13;13.50;77.60
10133;DHT22;5106;50.926;7.080;2022-11-15T16:56:40;13.50;77.60
10133;DHT22;5106;50.926;7.080;2022-11-15T16:59:06;13.50;77.70
10133;DHT22;5106;50.926;7.080;2022-11-15T17:01:36;13.50;77.70
10133;DHT22;5106;50.926;7.080;2022-11-15T17:04:18;13.50;77.70
10133;DHT22;5106;50.926;7.080;2022-11-15T17:06:46;13.50;77.70
10133;DHT22;5106;50.926;7.080;2022-11-15T17:09:14;13.50;77.70
10133;DHT22;5106;50.926;7.080;2022-11-15T17:11:41;13.50;77.60
10133;DHT22;5106;50.926;7.080;2022-11-15T17:14:07;13.50;77.70
10133;DHT22;5106;50.926;7.080;2022-11-15T17:16:33;13.50;77.60
10133;DHT22;5106;50.926;7.080;2022-11-15T17:19:00;13.50;77.60
10133;DHT22;5106;50.926;7.080;2022-11-15T17:21:26;13.50;77.60
10133;DHT22;5106;50.926;7.080;2022-11-15T17:23:53;13.50;77.50
10133;DHT22;5106;50.926;7.080;2022-11-15T17:26:20;13.50;77.50
10133;DHT22;5106;50.926;7.080;2022-11-15T17:28:45;13.50;77.50
10133;DHT22;5106;50.926;7.080;2022-11-15T17:31:12;13.50;77.60
10133;DHT22;5106;50.926;7.080;2022-11-15T17:33:39;13.50;77.60
10133;DHT22;5106;50.926;7.080;2022-11-15T17:36:07;13.50;77.80
10133;DHT22;5106;50.926;7.080;2022-11-15T17:38:33;13.50;77.80
10133;DHT22;5106;50.926;7.080;2022-11-15T17:41:13;13.50;78.10
10133;DHT22;5106;50.926;7.080;2022-11-15T17:43:39;13.50;78.10
10133;DHT22;5106;50.926;7.080;2022-11-15T17:46:07;13.50;78.30
10133;DHT22;5106;50.926;7.080;2022-11-15T17:48:33;13.50;78.20
10133;DHT22;5106;50.926;7.080;2022-11-15T17:51:01;13.50;78.40
10133;DHT22;5106;50.926;7.080;2022-11-15T17:53:32;13.40;78.70
10133;DHT22;5106;50.926;7.080;2022-11-15T17:56:09;13.40;79.00
10133;DHT22;5106;50.926;7.080;2022-11-15T17:58:35;13.50;79.30
10133;DHT22;5106;50.926;7.080;2022-11-15T18:01:11;13.40;79.80
10133;DHT22;5106;50.926;7.080;2022-11-15T18:03:40;13.40;80.40
10133;DHT22;5106;50.926;7.080;2022-11-15T18:06:07;13.30;80.90
10133;DHT22;5106;50.926;7.080;2022-11-15T18:08:35;13.20;81.40
10133;DHT22;5106;50.926;7.080;2022-11-15T18:13:38;13.10;82.10
10133;DHT22;5106;50.926;7.080;2022-11-15T18:16:05;13.00;82.50
10133;DHT22;5106;50.926;7.080;2022-11-15T18:18:33;13.00;82.80
10133;DHT22;5106;50.926;7.080;2022-11-15T18:21:08;12.90;83.00